Tyler, Minnesota
Current Conditions -  °F | °C
As of 4:55 AM on Sunday 23 Nov 2014 (Local Time) from KMML Reporting Station
Overcast Overcast  
Wind Chill: 39°   Ceiling: 9000
Heat Index: 39°   Visibility: 10mi
Dew Point: 36°   Wind: 0mph
Humidity: 87%   Direction: NA
Pressure: 29.42"   Gusts: NA
Location:  44.28°N, 96.13°W
Report Text: KMML 231055Z AUTO 00000KT 10SM OVC090 04/02 A2942 RMK AO1
Loading
Personal Weather Stations






























Interactive Weather Map New forecast layout! Learn more

10-Day Weather Forecast

Advertisements
Track Severe Weather on mobile